sensor_id;sensor_type;location;lat;lon;timestamp;pressure;altitude;pressure_sealevel;temperature;humidity
76374;BME280;65197;50.164;8.012;2023-06-04T00:01:58;95765.28;;;10.51;55.19
76374;BME280;65197;50.164;8.012;2023-06-04T00:04:25;95757.97;;;10.43;55.20
76374;BME280;65197;50.164;8.012;2023-06-04T00:06:50;95759.63;;;10.44;55.58
76374;BME280;65197;50.164;8.012;2023-06-04T00:09:16;95761.50;;;10.40;55.50
76374;BME280;65197;50.164;8.012;2023-06-04T00:11:41;95759.78;;;10.41;55.63
76374;BME280;65197;50.164;8.012;2023-06-04T00:14:06;95780.91;;;10.43;56.11
76374;BME280;65197;50.164;8.012;2023-06-04T00:16:32;95752.38;;;10.35;55.98
76374;BME280;65197;50.164;8.012;2023-06-04T00:19:00;95764.91;;;10.39;55.73
76374;BME280;65197;50.164;8.012;2023-06-04T00:21:26;95755.56;;;10.40;55.70
76374;BME280;65197;50.164;8.012;2023-06-04T00:23:51;95756.63;;;10.34;55.95
76374;BME280;65197;50.164;8.012;2023-06-04T00:26:16;95767.00;;;10.31;56.55
76374;BME280;65197;50.164;8.012;2023-06-04T00:28:42;95769.59;;;10.30;56.52
76374;BME280;65197;50.164;8.012;2023-06-04T00:31:07;95751.38;;;10.18;56.69
76374;BME280;65197;50.164;8.012;2023-06-04T00:33:32;95763.09;;;10.23;56.92
76374;BME280;65197;50.164;8.012;2023-06-04T00:36:00;95758.00;;;10.23;56.63
76374;BME280;65197;50.164;8.012;2023-06-04T00:38:25;95760.66;;;10.19;56.62
76374;BME280;65197;50.164;8.012;2023-06-04T00:40:50;95739.13;;;10.06;56.76
76374;BME280;65197;50.164;8.012;2023-06-04T00:43:16;95759.91;;;10.17;57.16
76374;BME280;65197;50.164;8.012;2023-06-04T00:45:41;95751.38;;;10.18;56.39
76374;BME280;65197;50.164;8.012;2023-06-04T00:48:08;95750.38;;;10.21;56.24
76374;BME280;65197;50.164;8.012;2023-06-04T00:50:35;95755.47;;;10.21;56.38
76374;BME280;65197;50.164;8.012;2023-06-04T00:53:01;95739.38;;;10.20;55.83
76374;BME280;65197;50.164;8.012;2023-06-04T00:55:26;95746.16;;;10.22;56.29
76374;BME280;65197;50.164;8.012;2023-06-04T00:57:52;95739.75;;;10.11;56.08
76374;BME280;65197;50.164;8.012;2023-06-04T01:00:17;95754.94;;;10.14;56.67
76374;BME280;65197;50.164;8.012;2023-06-04T01:02:44;95759.22;;;10.14;56.48
76374;BME280;65197;50.164;8.012;2023-06-04T01:05:43;95757.56;;;10.13;57.22
76374;BME280;65197;50.164;8.012;2023-06-04T01:08:12;95751.16;;;10.03;57.19
76374;BME280;65197;50.164;8.012;2023-06-04T01:10:50;95752.66;;;10.08;57.19
76374;BME280;65197;50.164;8.012;2023-06-04T01:13:16;95742.06;;;9.97;57.41
76374;BME280;65197;50.164;8.012;2023-06-04T01:15:41;95759.66;;;10.03;57.03
76374;BME280;65197;50.164;8.012;2023-06-04T01:18:07;95756.34;;;10.01;57.61
76374;BME280;65197;50.164;8.012;2023-06-04T01:20:36;95759.53;;;10.06;57.56
76374;BME280;65197;50.164;8.012;2023-06-04T01:25:47;95758.38;;;9.93;57.90
76374;BME280;65197;50.164;8.012;2023-06-04T01:28:15;95750.25;;;9.85;58.86
76374;BME280;65197;50.164;8.012;2023-06-04T01:30:44;95752.91;;;9.82;58.73
76374;BME280;65197;50.164;8.012;2023-06-04T01:33:15;95742.84;;;9.79;58.65
76374;BME280;65197;50.164;8.012;2023-06-04T01:35:41;95743.13;;;9.73;58.98
76374;BME280;65197;50.164;8.012;2023-06-04T01:38:07;95744.75;;;9.74;59.64
76374;BME280;65197;50.164;8.012;2023-06-04T01:40:33;95746.78;;;9.65;59.74
76374;BME280;65197;50.164;8.012;2023-06-04T01:42:58;95751.06;;;9.65;60.17
76374;BME280;65197;50.164;8.012;2023-06-04T01:45:25;95752.03;;;9.62;60.15
76374;BME280;65197;50.164;8.012;2023-06-04T01:47:51;95735.34;;;9.55;60.35
76374;BME280;65197;50.164;8.012;2023-06-04T01:50:17;95752.13;;;9.59;60.49
76374;BME280;65197;50.164;8.012;2023-06-04T01:52:42;95743.75;;;9.57;60.46
76374;BME280;65197;50.164;8.012;2023-06-04T01:55:10;95756.34;;;9.60;60.39
76374;BME280;65197;50.164;8.012;2023-06-04T01:57:37;95749.72;;;9.56;60.32
76374;BME280;65197;50.164;8.012;2023-06-04T02:00:04;95727.31;;;9.44;60.96
76374;BME280;65197;50.164;8.012;2023-06-04T02:02:32;95744.25;;;9.45;61.58
76374;BME280;65197;50.164;8.012;2023-06-04T02:04:58;95737.72;;;9.38;61.29
76374;BME280;65197;50.164;8.012;2023-06-04T02:07:23;95734.44;;;9.36;61.83
76374;BME280;65197;50.164;8.012;2023-06-04T02:09:49;95740.59;;;9.30;61.83
76374;BME280;65197;50.164;8.012;2023-06-04T02:12:15;95728.16;;;9.23;61.62
76374;BME280;65197;50.164;8.012;2023-06-04T02:14:41;95738.09;;;9.29;62.46
76374;BME280;65197;50.164;8.012;2023-06-04T02:17:07;95741.78;;;9.22;62.89
76374;BME280;65197;50.164;8.012;2023-06-04T02:19:41;95716.25;;;9.03;63.15
76374;BME280;65197;50.164;8.012;2023-06-04T02:22:13;95725.34;;;9.08;62.95
76374;BME280;65197;50.164;8.012;2023-06-04T02:24:40;95747.34;;;9.09;63.84
76374;BME280;65197;50.164;8.012;2023-06-04T02:27:08;95747.13;;;9.15;63.79
76374;BME280;65197;50.164;8.012;2023-06-04T02:29:34;95754.69;;;9.17;63.32
76374;BME280;65197;50.164;8.012;2023-06-04T02:31:59;95751.19;;;9.19;62.97
76374;BME280;65197;50.164;8.012;2023-06-04T02:34:25;95755.63;;;9.14;63.57
76374;BME280;65197;50.164;8.012;2023-06-04T02:36:50;95753.38;;;9.07;64.04
76374;BME280;65197;50.164;8.012;2023-06-04T02:39:17;95756.22;;;8.99;64.80
76374;BME280;65197;50.164;8.012;2023-06-04T02:41:42;95745.56;;;8.89;65.26
76374;BME280;65197;50.164;8.012;2023-06-04T02:44:08;95731.72;;;8.75;65.91
76374;BME280;65197;50.164;8.012;2023-06-04T02:46:33;95753.44;;;8.83;66.35
76374;BME280;65197;50.164;8.012;2023-06-04T02:48:59;95754.63;;;8.75;67.13
76374;BME280;65197;50.164;8.012;2023-06-04T02:51:24;95731.69;;;8.53;67.50
76374;BME280;65197;50.164;8.012;2023-06-04T02:53:50;95754.81;;;8.68;67.65
76374;BME280;65197;50.164;8.012;2023-06-04T02:56:15;95757.50;;;8.65;67.93
76374;BME280;65197;50.164;8.012;2023-06-04T02:58:54;95753.31;;;8.64;67.94
76374;BME280;65197;50.164;8.012;2023-06-04T03:01:24;95750.97;;;8.58;68.44
76374;BME280;65197;50.164;8.012;2023-06-04T03:03:50;95748.66;;;8.52;68.15
76374;BME280;65197;50.164;8.012;2023-06-04T03:06:17;95752.84;;;8.53;68.15
76374;BME280;65197;50.164;8.012;2023-06-04T03:08:43;95739.81;;;8.39;69.67
76374;BME280;65197;50.164;8.012;2023-06-04T03:11:09;95754.31;;;8.37;68.97
76374;BME280;65197;50.164;8.012;2023-06-04T03:13:35;95748.41;;;8.35;69.94
76374;BME280;65197;50.164;8.012;2023-06-04T03:16:01;95766.19;;;8.35;69.96
76374;BME280;65197;50.164;8.012;2023-06-04T03:18:29;95752.16;;;8.25;70.70
76374;BME280;65197;50.164;8.012;2023-06-04T03:20:55;95748.00;;;8.22;70.53
76374;BME280;65197;50.164;8.012;2023-06-04T03:23:21;95746.41;;;8.20;70.92
76374;BME280;65197;50.164;8.012;2023-06-04T03:25:47;95745.75;;;8.14;70.85
76374;BME280;65197;50.164;8.012;2023-06-04T03:28:12;95747.97;;;8.24;70.98
76374;BME280;65197;50.164;8.012;2023-06-04T03:30:37;95747.50;;;8.37;69.99
76374;BME280;65197;50.164;8.012;2023-06-04T03:33:03;95755.06;;;8.39;69.68
76374;BME280;65197;50.164;8.012;2023-06-04T03:35:29;95749.75;;;8.45;70.24
76374;BME280;65197;50.164;8.012;2023-06-04T03:37:54;95751.53;;;8.43;69.16
76374;BME280;65197;50.164;8.012;2023-06-04T03:40:20;95741.94;;;8.51;69.18
76374;BME280;65197;50.164;8.012;2023-06-04T03:42:45;95744.47;;;8.51;69.01
76374;BME280;65197;50.164;8.012;2023-06-04T03:45:11;95757.00;;;8.56;69.74
76374;BME280;65197;50.164;8.012;2023-06-04T03:47:38;95749.47;;;8.53;69.77
76374;BME280;65197;50.164;8.012;2023-06-04T03:50:04;95760.25;;;8.59;70.02
76374;BME280;65197;50.164;8.012;2023-06-04T03:52:29;95751.09;;;8.55;69.49
76374;BME280;65197;50.164;8.012;2023-06-04T03:54:55;95742.91;;;8.47;69.78
76374;BME280;65197;50.164;8.012;2023-06-04T03:57:20;95750.97;;;8.58;69.82
76374;BME280;65197;50.164;8.012;2023-06-04T03:59:45;95751.59;;;8.65;69.63
76374;BME280;65197;50.164;8.012;2023-06-04T04:02:11;95756.97;;;8.79;69.01
76374;BME280;65197;50.164;8.012;2023-06-04T04:04:36;95759.00;;;8.93;68.50
76374;BME280;65197;50.164;8.012;2023-06-04T04:07:02;95756.13;;;9.02;67.54
76374;BME280;65197;50.164;8.012;2023-06-04T04:09:27;95752.56;;;9.06;67.31
76374;BME280;65197;50.164;8.012;2023-06-04T04:11:52;95748.78;;;9.16;67.32
76374;BME280;65197;50.164;8.012;2023-06-04T04:14:18;95757.75;;;9.25;66.51
76374;BME280;65197;50.164;8.012;2023-06-04T04:16:43;95751.31;;;9.16;66.97
76374;BME280;65197;50.164;8.012;2023-06-04T04:19:09;95755.03;;;9.30;66.86
76374;BME280;65197;50.164;8.012;2023-06-04T04:21:36;95738.97;;;9.28;66.32
76374;BME280;65197;50.164;8.012;2023-06-04T04:24:03;95747.53;;;9.47;65.99
76374;BME280;65197;50.164;8.012;2023-06-04T04:26:28;95749.78;;;9.55;65.52
76374;BME280;65197;50.164;8.012;2023-06-04T04:28:54;95757.22;;;9.59;64.54
76374;BME280;65197;50.164;8.012;2023-06-04T04:31:24;95755.84;;;9.73;65.16
76374;BME280;65197;50.164;8.012;2023-06-04T04:33:49;95747.50;;;9.69;64.62
76374;BME280;65197;50.164;8.012;2023-06-04T04:36:16;95751.91;;;9.86;64.04
76374;BME280;65197;50.164;8.012;2023-06-04T04:38:43;95755.00;;;9.92;63.36
76374;BME280;65197;50.164;8.012;2023-06-04T04:41:10;95745.13;;;10.05;63.17
76374;BME280;65197;50.164;8.012;2023-06-04T04:43:37;95757.28;;;10.19;63.00
76374;BME280;65197;50.164;8.012;2023-06-04T04:46:04;95761.19;;;10.28;61.34
76374;BME280;65197;50.164;8.012;2023-06-04T04:48:30;95757.22;;;10.41;60.79
76374;BME280;65197;50.164;8.012;2023-06-04T04:50:55;95759.41;;;10.67;60.09
76374;BME280;65197;50.164;8.012;2023-06-04T04:53:21;95749.38;;;10.64;60.15
76374;BME280;65197;50.164;8.012;2023-06-04T04:55:46;95760.25;;;10.87;60.39
76374;BME280;65197;50.164;8.012;2023-06-04T04:58:12;95747.31;;;10.91;58.51
76374;BME280;65197;50.164;8.012;2023-06-04T05:00:37;95759.13;;;11.11;58.68
76374;BME280;65197;50.164;8.012;2023-06-04T05:03:03;95762.00;;;11.22;58.04
76374;BME280;65197;50.164;8.012;2023-06-04T05:05:28;95769.81;;;11.37;57.09
76374;BME280;65197;50.164;8.012;2023-06-04T05:07:54;95753.78;;;11.52;56.85
76374;BME280;65197;50.164;8.012;2023-06-04T05:10:19;95766.59;;;11.69;56.17
76374;BME280;65197;50.164;8.012;2023-06-04T05:12:58;95764.19;;;11.84;55.70
76374;BME280;65197;50.164;8.012;2023-06-04T05:15:25;95763.34;;;12.01;55.33
76374;BME280;65197;50.164;8.012;2023-06-04T05:17:52;95764.75;;;12.06;54.31
76374;BME280;65197;50.164;8.012;2023-06-04T05:20:18;95762.97;;;12.08;54.46
76374;BME280;65197;50.164;8.012;2023-06-04T05:22:45;95765.66;;;12.05;54.41
76374;BME280;65197;50.164;8.012;2023-06-04T05:25:11;95780.66;;;12.29;52.96
76374;BME280;65197;50.164;8.012;2023-06-04T05:27:37;95787.00;;;12.39;53.50
76374;BME280;65197;50.164;8.012;2023-06-04T05:30:03;95783.19;;;12.46;52.55
76374;BME280;65197;50.164;8.012;2023-06-04T05:32:29;95783.31;;;12.60;51.72
76374;BME280;65197;50.164;8.012;2023-06-04T05:34:57;95776.00;;;12.86;52.06
76374;BME280;65197;50.164;8.012;2023-06-04T05:37:25;95776.25;;;12.97;49.98
76374;BME280;65197;50.164;8.012;2023-06-04T05:39:54;95790.91;;;13.27;49.18
76374;BME280;65197;50.164;8.012;2023-06-04T05:42:20;95798.16;;;13.34;49.04
76374;BME280;65197;50.164;8.012;2023-06-04T05:44:46;95796.50;;;13.33;49.80
76374;BME280;65197;50.164;8.012;2023-06-04T05:47:11;95800.72;;;13.50;49.79
76374;BME280;65197;50.164;8.012;2023-06-04T05:49:37;95797.81;;;13.56;49.48
76374;BME280;65197;50.164;8.012;2023-06-04T05:52:02;95803.03;;;13.85;48.43
76374;BME280;65197;50.164;8.012;2023-06-04T05:54:28;95794.59;;;14.13;47.94
76374;BME280;65197;50.164;8.012;2023-06-04T05:56:54;95793.94;;;14.23;46.82
76374;BME280;65197;50.164;8.012;2023-06-04T05:59:20;95796.38;;;14.55;46.29
76374;BME280;65197;50.164;8.012;2023-06-04T06:01:46;95802.69;;;14.92;45.92
76374;BME280;65197;50.164;8.012;2023-06-04T06:04:14;95794.78;;;15.10;44.92
76374;BME280;65197;50.164;8.012;2023-06-04T06:06:41;95778.59;;;14.95;42.82
76374;BME280;65197;50.164;8.012;2023-06-04T06:09:09;95792.69;;;15.02;43.12
76374;BME280;65197;50.164;8.012;2023-06-04T06:11:35;95791.94;;;15.14;43.23
76374;BME280;65197;50.164;8.012;2023-06-04T06:14:00;95790.91;;;15.58;42.78
76374;BME280;65197;50.164;8.012;2023-06-04T06:16:26;95798.50;;;15.87;42.78
76374;BME280;65197;50.164;8.012;2023-06-04T06:18:52;95803.59;;;16.26;41.02
76374;BME280;65197;50.164;8.012;2023-06-04T06:21:18;95795.38;;;16.21;41.31
76374;BME280;65197;50.164;8.012;2023-06-04T06:23:43;95796.41;;;16.57;40.60
76374;BME280;65197;50.164;8.012;2023-06-04T06:26:08;95796.44;;;16.83;39.17
76374;BME280;65197;50.164;8.012;2023-06-04T06:28:34;95794.38;;;16.88;39.60
76374;BME280;65197;50.164;8.012;2023-06-04T06:31:01;95801.53;;;17.08;38.73
76374;BME280;65197;50.164;8.012;2023-06-04T06:33:26;95795.53;;;17.20;38.47
76374;BME280;65197;50.164;8.012;2023-06-04T06:35:52;95812.97;;;17.41;39.50
76374;BME280;65197;50.164;8.012;2023-06-04T06:38:17;95820.53;;;17.55;37.74
76374;BME280;65197;50.164;8.012;2023-06-04T06:40:43;95816.97;;;17.81;36.12
76374;BME280;65197;50.164;8.012;2023-06-04T06:43:08;95815.50;;;17.29;36.90
76374;BME280;65197;50.164;8.012;2023-06-04T06:45:35;95818.38;;;17.86;36.08
76374;BME280;65197;50.164;8.012;2023-06-04T06:48:01;95821.50;;;17.78;37.06
76374;BME280;65197;50.164;8.012;2023-06-04T06:50:26;95817.13;;;18.38;36.22
76374;BME280;65197;50.164;8.012;2023-06-04T06:52:52;95826.47;;;17.68;35.25
76374;BME280;65197;50.164;8.012;2023-06-04T06:55:17;95820.78;;;18.00;36.42
76374;BME280;65197;50.164;8.012;2023-06-04T06:57:43;95832.81;;;18.12;35.66
76374;BME280;65197;50.164;8.012;2023-06-04T07:00:09;95825.34;;;18.31;37.94
76374;BME280;65197;50.164;8.012;2023-06-04T07:02:34;95812.84;;;18.72;36.71
76374;BME280;65197;50.164;8.012;2023-06-04T07:05:00;95820.19;;;18.31;36.73
76374;BME280;65197;50.164;8.012;2023-06-04T07:07:25;95822.56;;;18.11;36.60
76374;BME280;65197;50.164;8.012;2023-06-04T07:09:51;95828.34;;;18.72;34.84
76374;BME280;65197;50.164;8.012;2023-06-04T07:12:17;95820.63;;;18.83;35.13
76374;BME280;65197;50.164;8.012;2023-06-04T07:14:42;95826.38;;;19.09;35.77
76374;BME280;65197;50.164;8.012;2023-06-04T07:17:08;95834.72;;;19.24;36.59
76374;BME280;65197;50.164;8.012;2023-06-04T07:19:33;95822.34;;;19.39;36.17
76374;BME280;65197;50.164;8.012;2023-06-04T07:21:59;95838.97;;;19.68;37.34
76374;BME280;65197;50.164;8.012;2023-06-04T07:24:24;95839.94;;;19.67;36.10
76374;BME280;65197;50.164;8.012;2023-06-04T07:26:50;95841.22;;;19.73;36.89
76374;BME280;65197;50.164;8.012;2023-06-04T07:29:16;95840.22;;;19.42;35.83
76374;BME280;65197;50.164;8.012;2023-06-04T07:31:41;95838.25;;;18.78;36.14
76374;BME280;65197;50.164;8.012;2023-06-04T07:34:07;95840.47;;;18.82;36.48
76374;BME280;65197;50.164;8.012;2023-06-04T07:36:33;95833.59;;;18.59;37.84
76374;BME280;65197;50.164;8.012;2023-06-04T07:38:59;95835.34;;;18.47;37.73
76374;BME280;65197;50.164;8.012;2023-06-04T07:41:24;95840.09;;;18.76;37.65
76374;BME280;65197;50.164;8.012;2023-06-04T07:43:51;95834.50;;;18.36;37.62
76374;BME280;65197;50.164;8.012;2023-06-04T07:46:16;95832.69;;;18.71;39.05
76374;BME280;65197;50.164;8.012;2023-06-04T07:48:44;95847.28;;;18.83;38.27
76374;BME280;65197;50.164;8.012;2023-06-04T07:51:09;95846.34;;;18.85;38.51
76374;BME280;65197;50.164;8.012;2023-06-04T07:53:36;95840.41;;;18.49;38.65
76374;BME280;65197;50.164;8.012;2023-06-04T07:56:03;95853.47;;;18.23;39.74
76374;BME280;65197;50.164;8.012;2023-06-04T07:58:29;95853.59;;;17.98;40.30
76374;BME280;65197;50.164;8.012;2023-06-04T08:00:55;95863.03;;;18.10;41.29
76374;BME280;65197;50.164;8.012;2023-06-04T08:03:20;95855.50;;;18.31;38.50
76374;BME280;65197;50.164;8.012;2023-06-04T08:05:46;95856.34;;;18.43;38.15
76374;BME280;65197;50.164;8.012;2023-06-04T08:08:11;95844.38;;;18.53;40.30
76374;BME280;65197;50.164;8.012;2023-06-04T08:10:36;95849.59;;;18.64;38.16
76374;BME280;65197;50.164;8.012;2023-06-04T08:13:02;95853.63;;;18.91;39.45
76374;BME280;65197;50.164;8.012;2023-06-04T08:15:27;95858.53;;;18.71;38.68
76374;BME280;65197;50.164;8.012;2023-06-04T08:17:53;95860.44;;;18.92;40.15
76374;BME280;65197;50.164;8.012;2023-06-04T08:20:19;95849.88;;;18.37;40.37
76374;BME280;65197;50.164;8.012;2023-06-04T08:22:44;95856.00;;;18.47;40.28
76374;BME280;65197;50.164;8.012;2023-06-04T08:25:09;95854.72;;;18.53;37.12
76374;BME280;65197;50.164;8.012;2023-06-04T08:27:35;95853.06;;;19.10;39.30
76374;BME280;65197;50.164;8.012;2023-06-04T08:30:03;95838.13;;;18.91;38.45
76374;BME280;65197;50.164;8.012;2023-06-04T08:32:28;95852.56;;;19.38;38.44
76374;BME280;65197;50.164;8.012;2023-06-04T08:34:54;95848.91;;;19.29;37.73
76374;BME280;65197;50.164;8.012;2023-06-04T08:37:20;95856.19;;;19.13;38.00
76374;BME280;65197;50.164;8.012;2023-06-04T08:39:47;95851.94;;;19.57;38.17
76374;BME280;65197;50.164;8.012;2023-06-04T08:42:22;95856.66;;;19.63;37.17
76374;BME280;65197;50.164;8.012;2023-06-04T08:44:52;95852.88;;;19.99;36.72
76374;BME280;65197;50.164;8.012;2023-06-04T08:47:20;95862.50;;;19.76;36.30
76374;BME280;65197;50.164;8.012;2023-06-04T08:49:50;95864.66;;;20.03;37.14
76374;BME280;65197;50.164;8.012;2023-06-04T08:52:16;95860.72;;;20.09;36.17
76374;BME280;65197;50.164;8.012;2023-06-04T08:54:42;95858.31;;;19.96;36.16
76374;BME280;65197;50.164;8.012;2023-06-04T08:57:08;95868.16;;;19.70;35.83
76374;BME280;65197;50.164;8.012;2023-06-04T08:59:35;95857.63;;;20.15;36.16
76374;BME280;65197;50.164;8.012;2023-06-04T09:02:00;95849.72;;;19.96;36.77
76374;BME280;65197;50.164;8.012;2023-06-04T09:04:27;95866.19;;;20.59;35.76
76374;BME280;65197;50.164;8.012;2023-06-04T09:06:53;95858.72;;;20.33;35.57
76374;BME280;65197;50.164;8.012;2023-06-04T09:09:20;95856.44;;;20.19;35.87
76374;BME280;65197;50.164;8.012;2023-06-04T09:11:53;95871.69;;;20.33;36.67
76374;BME280;65197;50.164;8.012;2023-06-04T09:14:19;95871.28;;;20.70;35.61
76374;BME280;65197;50.164;8.012;2023-06-04T09:16:50;95869.16;;;20.75;35.77
76374;BME280;65197;50.164;8.012;2023-06-04T09:19:16;95875.31;;;21.35;34.59
76374;BME280;65197;50.164;8.012;2023-06-04T09:21:56;95870.69;;;21.49;34.07
76374;BME280;65197;50.164;8.012;2023-06-04T09:24:23;95875.03;;;21.08;34.10
76374;BME280;65197;50.164;8.012;2023-06-04T09:26:49;95873.81;;;20.81;34.19
76374;BME280;65197;50.164;8.012;2023-06-04T09:29:15;95878.22;;;21.21;33.96
76374;BME280;65197;50.164;8.012;2023-06-04T09:31:41;95879.75;;;21.64;33.65
76374;BME280;65197;50.164;8.012;2023-06-04T09:34:09;95873.78;;;21.73;31.74
76374;BME280;65197;50.164;8.012;2023-06-04T09:36:35;95871.88;;;21.95;31.53
76374;BME280;65197;50.164;8.012;2023-06-04T09:39:02;95874.03;;;21.70;32.53
76374;BME280;65197;50.164;8.012;2023-06-04T09:41:28;95873.19;;;21.60;33.18
76374;BME280;65197;50.164;8.012;2023-06-04T09:44:01;95872.44;;;22.08;30.27
76374;BME280;65197;50.164;8.012;2023-06-04T09:46:31;95861.53;;;22.14;29.58
76374;BME280;65197;50.164;8.012;2023-06-04T09:49:01;95868.84;;;21.80;30.20
76374;BME280;65197;50.164;8.012;2023-06-04T09:51:26;95874.00;;;21.51;31.92
76374;BME280;65197;50.164;8.012;2023-06-04T09:53:56;95875.63;;;22.11;30.08
76374;BME280;65197;50.164;8.012;2023-06-04T09:56:22;95874.38;;;22.35;29.33
76374;BME280;65197;50.164;8.012;2023-06-04T09:58:54;95859.31;;;22.09;29.10
76374;BME280;65197;50.164;8.012;2023-06-04T10:01:20;95876.00;;;22.46;30.14
76374;BME280;65197;50.164;8.012;2023-06-04T10:03:47;95860.72;;;22.23;29.88
76374;BME280;65197;50.164;8.012;2023-06-04T10:06:15;95862.72;;;21.91;28.76
76374;BME280;65197;50.164;8.012;2023-06-04T10:08:45;95872.06;;;22.22;28.96
76374;BME280;65197;50.164;8.012;2023-06-04T10:11:11;95854.97;;;22.20;27.24
76374;BME280;65197;50.164;8.012;2023-06-04T10:13:47;95868.00;;;21.60;30.05
76374;BME280;65197;50.164;8.012;2023-06-04T10:16:13;95876.97;;;22.06;29.66
76374;BME280;65197;50.164;8.012;2023-06-04T10:18:39;95871.84;;;21.75;27.40
76374;BME280;65197;50.164;8.012;2023-06-04T10:21:04;95869.41;;;21.93;27.58
76374;BME280;65197;50.164;8.012;2023-06-04T10:23:31;95857.97;;;22.34;29.62
76374;BME280;65197;50.164;8.012;2023-06-04T10:25:57;95863.47;;;23.07;27.01
76374;BME280;65197;50.164;8.012;2023-06-04T10:28:23;95876.00;;;22.46;26.94
76374;BME280;65197;50.164;8.012;2023-06-04T10:30:49;95870.78;;;22.07;28.20
76374;BME280;65197;50.164;8.012;2023-06-04T10:33:21;95874.59;;;22.90;26.50
76374;BME280;65197;50.164;8.012;2023-06-04T10:35:50;95869.97;;;22.74;26.15
76374;BME280;65197;50.164;8.012;2023-06-04T10:38:15;95862.91;;;22.38;27.13
76374;BME280;65197;50.164;8.012;2023-06-04T10:40:43;95869.16;;;22.45;29.88
76374;BME280;65197;50.164;8.012;2023-06-04T10:43:11;95869.72;;;22.58;28.52
76374;BME280;65197;50.164;8.012;2023-06-04T10:45:36;95856.50;;;22.88;26.61
76374;BME280;65197;50.164;8.012;2023-06-04T10:48:03;95863.13;;;23.48;27.09
76374;BME280;65197;50.164;8.012;2023-06-04T10:50:29;95856.59;;;23.44;25.77
76374;BME280;65197;50.164;8.012;2023-06-04T10:52:55;95855.63;;;23.17;25.28
76374;BME280;65197;50.164;8.012;2023-06-04T10:55:23;95858.84;;;22.82;26.17
76374;BME280;65197;50.164;8.012;2023-06-04T10:57:52;95864.47;;;22.77;26.57
76374;BME280;65197;50.164;8.012;2023-06-04T11:00:18;95845.59;;;22.75;25.84
76374;BME280;65197;50.164;8.012;2023-06-04T11:02:56;95851.63;;;22.76;27.15
76374;BME280;65197;50.164;8.012;2023-06-04T11:05:22;95854.13;;;22.39;26.54
76374;BME280;65197;50.164;8.012;2023-06-04T11:07:49;95873.81;;;22.60;26.38
76374;BME280;65197;50.164;8.012;2023-06-04T11:10:16;95875.72;;;22.10;26.58
76374;BME280;65197;50.164;8.012;2023-06-04T11:12:49;95863.16;;;22.05;26.79
76374;BME280;65197;50.164;8.012;2023-06-04T11:15:18;95871.34;;;22.01;27.12
76374;BME280;65197;50.164;8.012;2023-06-04T11:17:53;95865.03;;;21.84;27.23
76374;BME280;65197;50.164;8.012;2023-06-04T11:20:19;95866.09;;;21.81;27.62
76374;BME280;65197;50.164;8.012;2023-06-04T11:22:53;95865.66;;;21.57;26.17
76374;BME280;65197;50.164;8.012;2023-06-04T11:25:18;95866.09;;;21.62;27.89
76374;BME280;65197;50.164;8.012;2023-06-04T11:27:45;95861.78;;;22.01;26.75
76374;BME280;65197;50.164;8.012;2023-06-04T11:30:10;95862.34;;;22.44;26.84
76374;BME280;65197;50.164;8.012;2023-06-04T11:32:37;95865.91;;;22.23;26.07
76374;BME280;65197;50.164;8.012;2023-06-04T11:35:04;95854.56;;;23.00;24.77
76374;BME280;65197;50.164;8.012;2023-06-04T11:37:32;95853.56;;;21.96;26.07
76374;BME280;65197;50.164;8.012;2023-06-04T11:39:58;95869.16;;;22.06;27.31
76374;BME280;65197;50.164;8.012;2023-06-04T11:42:27;95857.00;;;22.26;27.36
76374;BME280;65197;50.164;8.012;2023-06-04T11:44:58;95867.13;;;22.39;27.20
76374;BME280;65197;50.164;8.012;2023-06-04T11:47:24;95862.28;;;21.85;25.89
76374;BME280;65197;50.164;8.012;2023-06-04T11:49:56;95859.81;;;22.81;26.29
76374;BME280;65197;50.164;8.012;2023-06-04T11:52:22;95855.41;;;23.28;26.40
76374;BME280;65197;50.164;8.012;2023-06-04T11:54:48;95855.72;;;23.53;25.62
76374;BME280;65197;50.164;8.012;2023-06-04T11:57:13;95845.34;;;23.71;25.27
76374;BME280;65197;50.164;8.012;2023-06-04T11:59:39;95858.47;;;23.97;24.74
76374;BME280;65197;50.164;8.012;2023-06-04T12:02:06;95852.97;;;23.54;24.86
76374;BME280;65197;50.164;8.012;2023-06-04T12:04:32;95852.97;;;22.90;26.12
76374;BME280;65197;50.164;8.012;2023-06-04T12:06:59;95850.13;;;21.76;26.27
76374;BME280;65197;50.164;8.012;2023-06-04T12:09:28;95826.72;;;21.57;26.55
76374;BME280;65197;50.164;8.012;2023-06-04T12:12:03;95846.16;;;21.72;29.84
76374;BME280;65197;50.164;8.012;2023-06-04T12:14:29;95850.44;;;22.31;26.94
76374;BME280;65197;50.164;8.012;2023-06-04T12:16:58;95835.69;;;22.88;26.50
76374;BME280;65197;50.164;8.012;2023-06-04T12:19:25;95811.59;;;22.86;25.16
76374;BME280;65197;50.164;8.012;2023-06-04T12:22:00;95852.88;;;22.62;25.58
76374;BME280;65197;50.164;8.012;2023-06-04T12:24:30;95839.13;;;23.26;24.86
76374;BME280;65197;50.164;8.012;2023-06-04T12:27:07;95839.97;;;23.27;24.98
76374;BME280;65197;50.164;8.012;2023-06-04T12:29:34;95845.56;;;22.95;25.97
76374;BME280;65197;50.164;8.012;2023-06-04T12:32:07;95838.31;;;23.26;25.42
76374;BME280;65197;50.164;8.012;2023-06-04T12:34:36;95839.09;;;23.36;24.69
76374;BME280;65197;50.164;8.012;2023-06-04T12:37:02;95841.94;;;23.70;24.13
76374;BME280;65197;50.164;8.012;2023-06-04T12:39:32;95837.03;;;24.38;23.91
76374;BME280;65197;50.164;8.012;2023-06-04T12:41:58;95838.56;;;23.32;24.62
76374;BME280;65197;50.164;8.012;2023-06-04T12:44:23;95831.88;;;23.48;24.34
76374;BME280;65197;50.164;8.012;2023-06-04T12:46:49;95845.38;;;23.33;25.29
76374;BME280;65197;50.164;8.012;2023-06-04T12:49:15;95843.97;;;23.21;24.61
76374;BME280;65197;50.164;8.012;2023-06-04T12:51:40;95852.91;;;23.09;25.30
76374;BME280;65197;50.164;8.012;2023-06-04T12:54:06;95837.88;;;23.30;26.08
76374;BME280;65197;50.164;8.012;2023-06-04T12:56:31;95843.38;;;22.90;24.14
76374;BME280;65197;50.164;8.012;2023-06-04T12:58:56;95851.47;;;22.77;23.31
76374;BME280;65197;50.164;8.012;2023-06-04T13:01:22;95841.84;;;22.87;24.51
76374;BME280;65197;50.164;8.012;2023-06-04T13:03:47;95837.84;;;23.12;24.11